Home > Products > Valid Products > TAF

000
FTUS42 KGSP 241700
TAFCLT
TAF
KCLT 241720Z 2418/2518 13006KT P6SM FEW250
     FM250600 15006KT P6SM BKN050
     FM250800 15005KT P6SM BKN020
     FM250900 15005KT P6SM BKN008
     FM251400 19008KT P6SM BKN013 PROB30 2516/2518 4SM TSRA
      BKN030CB=



000
FTUS42 KGSP 241700
TAFGSP
TAF
KGSP 241720Z 2418/2518 05007KT P6SM FEW250
     FM242000 14007KT P6SM FEW250
     FM250600 13003KT P6SM BKN019
     FM250900 16003KT P6SM BKN008
     FM251300 19008KT P6SM OVC010 PROB30 2514/2516 4SM TSRA
      OVC008CB=



000
FTUS42 KGSP 241700
TAFAVL
TAF
KAVL 241720Z 2418/2518 16007KT P6SM FEW250
     FM250400 16003KT P6SM SCT230
     FM250700 17003KT P6SM BKN100
     FM251200 17005KT P6SM -SHRA OVC050 WS020/20035KT
     FM251300 18007KT P6SM -SHRA OVC025 PROB30 2513/2515 4SM TSRA
      OVC015CB=



000
FTUS42 KGSP 241400 AAA
TAFCLT
TAF AMD
KCLT 241457Z 2415/2512 06006KT P6SM FEW250
     FM241700 15006KT P6SM FEW250
     FM250600 15006KT P6SM BKN050
     FM250800 15005KT P6SM BKN015=



000
FTUS42 KGSP 241100
TAFCLT
TAF
KCLT 241120Z 2412/2512 06006KT P6SM FEW250
     FM241700 16006KT P6SM FEW250
     FM250600 15006KT P6SM BKN050
     FM250800 15005KT P6SM BKN015=



000
FTUS42 KGSP 241100
TAFGSP
TAF
KGSP 241120Z 2412/2512 03005KT P6SM FEW250
     FM241800 13005KT P6SM SCT250
     FM250500 13003KT P6SM BKN060
     FM250700 14003KT P6SM BKN029
     FM250900 16003KT P6SM BKN014=



000
FTUS42 KGSP 241100
TAFAVL
TAF
KAVL 241120Z 2412/2512 14003KT P6SM SKC
     FM241400 14006KT P6SM FEW250
     FM242100 17010KT P6SM FEW250
     FM250100 17005KT P6SM FEW250
     FM250600 17004KT P6SM BKN050
     FM251000 18004KT P6SM OVC027=



000
FTUS42 KGSP 240900 AAA
TAFCLT
TAF AMD
KCLT 240910Z 2409/2506 06006KT P6SM SKC
     FM241700 16008KT P6SM FEW250=



000
FTUS42 KGSP 240500
TAFGSP
TAF
KGSP 240537Z 2406/2506 04006KT P6SM SKC
     FM241600 08007KT P6SM SKC
     FM241900 14006KT P6SM FEW250
     FM250500 13003KT P6SM BKN060=



000
FTUS42 KGSP 240500
TAFAVL
TAF
KAVL 240537Z 2406/2506 00000KT P6SM SKC
     FM241400 14006KT P6SM FEW250
     FM242100 17010KT P6SM FEW250
     FM250100 16005KT P6SM SCT100 BKN250=



000
FTUS42 KGSP 240500
TAFCLT
TAF
KCLT 240537Z 2406/2506 03006KT P6SM SKC
     FM241400 07006KT P6SM FEW250
     FM242000 16005KT P6SM FEW250=



000
FTUS42 KGSP 240300 AAA
TAFCLT
TAF AMD
KCLT 240312Z 2403/2424 03008KT P6SM SKC
     FM240700 05005KT P6SM SKC
     FM241700 14005KT P6SM FEW250
     FM242100 20005KT P6SM FEW250=



000
FTUS42 KGSP 232300
TAFGSP
TAF
KGSP 232335Z 2400/2424 01007KT P6SM SKC
     FM241500 09007KT P6SM SKC
     FM241700 13006KT P6SM FEW250
     FM242000 17006KT P6SM FEW250=



000
FTUS42 KGSP 232300
TAFAVL
TAF
KAVL 232335Z 2400/2424 33010KT P6SM SKC
     FM240500 00000KT P6SM SKC
     FM241400 13006KT P6SM FEW250
     FM242100 17009KT P6SM FEW250=



000
FTUS42 KGSP 232300
TAFCLT
TAF
KCLT 232335Z 2400/2424 36005KT P6SM SKC
     FM240300 02005KT P6SM SKC
     FM241700 14005KT P6SM FEW250
     FM242100 20005KT P6SM FEW250=



000
FTUS42 KGSP 232000 AAA
TAFCLT
TAF AMD
KCLT 232057Z 2321/2418 33010KT P6SM SKC
     FM232300 01005KT P6SM SKC
     FM241500 11006KT P6SM FEW250=



000
FTUS42 KGSP 231700
TAFCLT
TAF
KCLT 231722Z 2318/2418 33010KT P6SM SKC
     FM232300 01005KT P6SM SKC
     FM241500 11006KT P6SM FEW250=



000
FTUS42 KGSP 231700
TAFGSP
TAF
KGSP 231722Z 2318/2418 35008KT P6SM SKC
     FM240500 03005KT P6SM SKC
     FM241600 12006KT P6SM FEW250=



000
FTUS42 KGSP 231700
TAFAVL
TAF
KAVL 231722Z 2318/2418 35012G18KT P6SM SKC
     FM232300 34008KT P6SM SKC
     FM240400 00000KT P6SM FEW250
     FM241300 16004KT P6SM FEW200
     FM241500 17008KT P6SM FEW200=



000
FTUS42 KGSP 231400 AAA
TAFCLT
TAF AMD
KCLT 231454Z 2315/2412 34008G17KT P6SM FEW250
     FM232300 36006KT P6SM SKC
     FM240600 03006KT P6SM SKC=



000
FTUS42 KGSP 231100
TAFAVL
TAF
KAVL 231125Z 2312/2412 35014G22KT P6SM SKC
     FM240000 34009KT P6SM FEW250
     FM240600 35003KT P6SM FEW250=



000
FTUS42 KGSP 231100
TAFCLT
TAF
KCLT 231125Z 2312/2412 35008KT P6SM SKC
     FM240600 03006KT P6SM SKC=



000
FTUS42 KGSP 231100
TAFGSP
TAF
KGSP 231125Z 2312/2412 34006KT P6SM SKC
     FM231500 01008KT P6SM SKC
     FM240200 02004KT P6SM SKC=



000
FTUS42 KGSP 230900 AAA
TAFAVL
TAF AMD
KAVL 230901Z 2309/2406 35009G17KT P6SM SKC
     FM231400 33015G24KT P6SM SKC
     FM240000 33009KT P6SM SKC
     FM240400 33005KT P6SM SKC=



000
FTUS42 KGSP 230900 AAA
TAFGSP
TAF AMD
KGSP 230900Z 2309/2406 35003KT P6SM SKC
     FM231300 01007KT P6SM SKC
     FM232300 03005KT P6SM SKC=



000
FTUS42 KGSP 230800 AAA
TAFCLT
TAF AMD
KCLT 230858Z 2309/2406 33005KT P6SM SKC
     FM231300 34009KT P6SM SKC
     FM240000 02005KT P6SM SKC=



000
FTUS42 KGSP 230500
TAFGSP
TAF
KGSP 230529Z 2306/2406 VRB03KT 3SM BR FEW250
      TEMPO 2306/2310 00000KT 1SM BR
     FM231000 31004KT P6SM FEW250
     FM232300 03005KT P6SM SKC=



000
FTUS42 KGSP 230500
TAFAVL
TAF
KAVL 230529Z 2306/2406 32006KT P6SM FEW050
     FM231000 33010KT P6SM SKC
     FM231400 33013G22KT P6SM SKC
     FM240000 33009KT P6SM SKC
     FM240400 33005KT P6SM SKC=



000
FTUS42 KGSP 230500
TAFCLT
TAF
KCLT 230529Z 2306/2406 31005KT P6SM FEW250
     FM232000 32009KT P6SM SKC
     FM240000 35005KT P6SM SKC=



000
FTUS42 KGSP 222300
TAFAVL
TAF
KAVL 222334Z 2300/2324 33008KT P6SM SCT040
     FM230800 34012KT P6SM FEW250
     FM231400 33013KT P6SM SKC
     FM232300 32009KT P6SM SKC=



000
FTUS42 KGSP 222300
TAFCLT
TAF
KCLT 222334Z 2300/2324 25004KT P6SM FEW090 BKN250
     FM230300 29004KT P6SM FEW070 FEW250
     FM231400 34008KT P6SM SKC=



000
FTUS42 KGSP 222300
TAFGSP
TAF
KGSP 222334Z 2300/2324 25006KT P6SM BKN250
     FM230300 28006KT P6SM SCT250
     FM230900 34005KT P6SM SKC
     FM231500 35011KT P6SM SKC=



000
FTUS42 KGSP 222000 AAA
TAFCLT
TAF AMD
KCLT 222059Z 2221/2318 28007KT P6SM VCSH SCT060 BKN100
      TEMPO 2221/2223 24006KT 6SM -SHRA BR BKN060 OVC100
     FM222300 28007KT P6SM BKN060
     FM230100 29007KT P6SM SCT120
     FM230900 34008KT P6SM SKC=



000
FTUS42 KGSP 221700
TAFAVL
TAF
KAVL 221736Z 2218/2318 34008KT 6SM -SHRA OVC045
     FM222000 31007KT P6SM OVC050
     FM230000 32009KT P6SM SCT040
     FM230500 32013KT P6SM FEW020 FEW035
     FM230800 34015G25KT P6SM FEW150=



000
FTUS42 KGSP 221700
TAFCLT
TAF
KCLT 221736Z 2218/2318 28009KT P6SM SCT060 BKN100
      TEMPO 2219/2222 32012G20KT 6SM -TSRA BR OVC040CB
     FM222200 28007KT P6SM BKN060
     FM230100 29007KT P6SM SCT120
     FM230900 34008KT P6SM SKC=



000
FTUS42 KGSP 221700
TAFGSP
TAF
KGSP 221736Z 2218/2318 26008KT P6SM VCSH BKN060
     FM222000 29005KT P6SM -SHRA VCTS OVC045CB
     FM222200 29004KT P6SM BKN045
     FM230500 32007KT P6SM FEW100
     FM231500 35011KT P6SM SKC=



000
FTUS42 KGSP 221500 AAA
TAFCLT
TAF AMD
KCLT 221505Z 2215/2312 26003KT P6SM BKN100
     FM221600 28007KT P6SM SCT090 BKN150
     FM221800 28010KT P6SM -SHRA BKN070
      TEMPO 2219/2222 32012G20KT 6SM -TSRA BR OVC040CB
     FM230000 29007KT P6SM BKN250
     FM230500 32006KT P6SM FEW250=



000
FTUS42 KGSP 221100
TAFAVL
TAF
KAVL 221127Z 2212/2312 30003KT P6SM BKN100
     FM221500 30007KT P6SM VCSH OVC080
     FM221800 29007KT P6SM -SHRA VCTS OVC050CB
     FM222100 30008KT P6SM BKN050
     FM230000 31010KT P6SM SCT080
     FM230600 33016G24KT P6SM FEW250=



000
FTUS42 KGSP 221100
TAFCLT
TAF
KCLT 221127Z 2212/2312 25003KT P6SM BKN150 OVC250
     FM221600 26007KT P6SM SCT090 BKN150
     FM221800 26010KT P6SM -SHRA BKN070
      TEMPO 2219/2222 30012G20KT 6SM -TSRA BR OVC040CB
     FM230000 29007KT P6SM BKN250
     FM230500 32006KT P6SM FEW250=



000
FTUS42 KGSP 221100
TAFGSP
TAF
KGSP 221127Z 2212/2312 25003KT P6SM BKN110
     FM221400 26007KT P6SM BKN090
     FM221800 25009KT P6SM -SHRA VCTS OVC070CB
     FM222300 27007KT P6SM BKN180
     FM230400 33006KT P6SM FEW250=



000
FTUS42 KGSP 220900 AAA
TAFCLT
TAF AMD
KCLT 220906Z 2209/2306 25003KT P6SM SCT150 BKN250
     FM221600 26007KT P6SM SCT070 BKN180
     FM221800 26010KT P6SM OVC070 PROB30 2218/2221 4SM TSRA OVC040CB
     FM222100 28008KT P6SM -TSRA BKN040CB
     FM230000 29007KT P6SM BKN250=



000
FTUS42 KGSP 220500
TAFGSP
TAF
KGSP 220535Z 2206/2306 25003KT P6SM SCT170 BKN250
     FM221400 26007KT P6SM BKN200
     FM221600 25009KT P6SM BKN110 PROB30 2216/2219 4SM TSRA BKN040CB
     FM221900 27009KT P6SM -SHRA VCTS OVC060CB
     FM222300 27007KT P6SM BKN200
     FM230400 33006KT P6SM FEW240=



000
FTUS42 KGSP 220500
TAFAVL
TAF
KAVL 220535Z 2206/2306 29003KT P6SM SCT230
     FM221000 29003KT P6SM BKN110
     FM221500 30007KT P6SM OVC060 PROB30 2215/2216 4SM TSRA OVC040CB
     FM221800 29007KT P6SM -SHRA VCTS OVC050CB
     FM222200 31009KT P6SM BKN090
     FM230300 31012G22KT P6SM BKN250=



000
FTUS42 KGSP 220500
TAFCLT
TAF
KCLT 220535Z 2206/2306 22003KT P6SM SCT170 BKN250
     FM221600 26007KT P6SM BKN180
     FM221800 26010KT P6SM OVC070 PROB30 2218/2221 4SM TSRA OVC040CB
     FM222100 28008KT P6SM -TSRA BKN040CB
     FM230000 29007KT P6SM BKN250=



000
FTUS42 KGSP 212300 RRA
TAFCLT
TAF
KCLT 212341Z 2200/2224 20004KT P6SM BKN200
     FM221600 25008KT P6SM BKN200
     FM221700 25009KT P6SM BKN060 PROB30 2217/2219 4SM TSRA BKN040CB
     FM221900 25010KT P6SM -TSRA BKN040CB OVC070
     FM222300 25010KT P6SM BKN035=



000
FTUS42 KGSP 212300 RRA
TAFAVL
TAF
KAVL 212341Z 2200/2224 17004KT P6SM BKN200
     FM220300 00000KT P6SM SCT250
     FM220800 30004KT P6SM BKN100
     FM221600 28004KT P6SM BKN045 PROB30 2216/2218 4SM TSRA BKN040CB
     FM221800 26006KT P6SM -SHRA VCTS OVC040CB
     FM222100 30009KT P6SM BKN040=



000
FTUS42 KGSP 212300 RRA
TAFGSP
TAF
KGSP 212341Z 2200/2224 20005KT P6SM BKN190
     FM221400 26007KT P6SM BKN080
     FM221600 26009KT P6SM BKN080 PROB30 2216/2218 4SM TSRA BKN040CB
     FM221800 23011KT P6SM -SHRA VCTS OVC040CB
     FM222100 24012KT P6SM BKN035=



000
FTUS42 KGSP 212000 AAA
TAFCLT
TAF AMD
KCLT 212056Z 2121/2218 18003KT P6SM SCT250
     FM221300 24005KT P6SM BKN080
     FM221700 25009KT P6SM BKN070=



    US Dept of Commerce
    National Oceanic and Atmospheric Administration
    National Weather Service
    1325 East West Highway
    Silver Spring, MD 20910
    Page Author: NWS Internet Services Team
Disclaimer
Information Quality
Credits
Glossary
Privacy Policy
Freedom of Information Act (FOIA)
About Us
Career Opportunities